• Join FlightAware (Why Join?)
  • Login
  • US Flag 
02:43AM EDT


 

Airport Tracker/Info


-or-


 

Live Flight TrackerFlight Track Log ✈ DAL2033 ✈ 14-May-2013 ✈ KALB - KATL

Flight Track Log - Related Links

Times and Time Zones

All times are in EDT time to prevent confusion due to time zone crossing. See the DAL2033 flight status page for this flight to view local times or setup timezone preferences in your user account.

Time Position Orientation Groundspeed Altitude Reporting Facility
EDT Latitude Longitude Course Direction KTS MPH feet Rate Location/Type
06:05PM 42.7714 -73.8061 180° South 171 197 1,600  Level Boston Center
06:06PM 42.8144 -73.8836 307° West 252 290 5,300 2,820 Climbing Boston Center
06:07PM 42.8197 -73.9517 276° West 264 304 7,600 3,300 Climbing Boston Center
06:08PM 42.5046 -74.1437 200° South  Level Estimated
06:08PM 42.8244 -74.0536 274° West 276 318 11,300  Level Boston Center
06:09PM 42.4229 -74.2571 198° South  Level Estimated
06:09PM 42.8019 -74.1692 255° West 317 365 13,200  Level Boston Center
06:10PM 42.3410 -74.3701 180° South  Level Estimated
06:10PM 42.7008 -74.2425 208° Southwest 356 410 16,600  Level Boston Center
06:11PM 42.5806 -74.2108 169° South 383 441 18,500 1,980 Climbing Boston Center
06:12PM 42.4747 -74.1656 162° South 425 489 20,600 2,100 Climbing Boston Center
06:13PM 42.3528 -74.1006 158° South 439 505 22,800 2,100 Climbing Boston Center
06:14PM 42.2244 -74.0439 162° South 462 532 24,900 1,980 Climbing Boston Center
06:15PM 42.0911 -74.0431 180° South 480 552 26,800 1,380 Climbing Boston Center
06:16PM 41.9492 -74.0536 183° South 491 565 27,700 1,080 Climbing Boston Center
06:18PM 41.6903 -74.0683 182° South 511 588 29,800 1,020 Climbing New York Center
06:19PM 41.5383 -74.0636 179° South 536 617 30,600 1,140 Climbing New York Center
06:20PM 41.3772 -74.0197 168° South 556 640 32,100 2,160 Climbing New York Center
06:21PM 41.2253 -74.0206 180° South 575 662 35,000 1,920 Climbing New York Center
06:22PM 41.1289 -74.1153 217° Southwest 469 540 36,000 420 Climbing New York Center
06:23PM 41.0564 -74.2408 233° Southwest 426 490 35,900  Descending New York Center
06:24PM 40.9819 -74.3636 231° Southwest 421 484 36,000  Climbing New York Center
06:25PM 40.9056 -74.4803 229° Southwest 431 496 36,000  Level New York Center
06:26PM 40.8283 -74.6078 231° Southwest 437 503 36,000  Level New York Center
06:27PM 40.7514 -74.7294 230° Southwest 443 510 36,000  Level New York Center
06:28PM 40.6722 -74.8533 230° Southwest 443 510 36,000  Level New York Center
06:29PM 40.5950 -74.9772 231° Southwest 443 510 36,000  Level New York Center
06:30PM 40.5175 -75.1008 231° Southwest 443 510 36,000  Level New York Center
06:31PM 40.4378 -75.2294 231° Southwest 448 516 36,000  Level New York Center
06:32PM 40.3581 -75.3522 230° Southwest 448 516 36,000  Level New York Center
06:33PM 40.2781 -75.4775 230° Southwest 448 516 36,000  Level New York Center
06:34PM 40.2019 -75.6056 232° Southwest 453 521 36,000  Level New York Center
06:35PM 40.1383 -75.7369 238° Southwest 448 516 36,000  Level New York Center
06:36PM 40.0681 -75.8675 235° Southwest 443 510 36,000  Level New York Center
06:37PM 40.0019 -75.9983 237° Southwest 437 503 36,000  Level New York Center
06:38PM 39.9353 -76.1314 237° Southwest 442 509 36,000  Level New York Center
06:39PM 39.8600 -76.2744 236° Southwest 447 514 36,000  Level New York Center
06:40PM 39.7933 -76.4069 237° Southwest 447 514 36,000  Level New York Center
06:41PM 39.7478 -76.4956 236° Southwest 453 521 36,000  Level Washington Center
06:42PM 39.6694 -76.6403 235° Southwest 441 507 36,000  Level Washington Center
06:43PM 39.6017 -76.7711 236° Southwest 441 507 36,000  Level Washington Center
06:44PM 39.5336 -76.9047 237° Southwest 441 507 36,000  Level Washington Center
06:45PM 39.4489 -77.0239 227° Southwest 441 507 36,000  Level Washington Center
06:46PM 39.3517 -77.1294 220° Southwest 452 520 36,000  Level Washington Center
06:47PM 39.2522 -77.2344 219° Southwest 466 536 36,000  Level Washington Center
06:48PM 39.1531 -77.3367 219° Southwest 466 536 36,000 -600 Level Washington Center
06:49PM 39.0578 -77.4386 220° Southwest 461 531 34,800 -1,020 Descending Washington Center
06:50PM 38.9825 -77.5811 236° Southwest 436 502 34,000 -480 Descending Washington Center
06:51PM 38.9242 -77.6994 238° Southwest 450 518 33,900 -540 Descending Washington Center
06:52PM 38.8694 -77.8472 245° Southwest 428 493 33,000 -840 Descending Washington Center
06:53PM 38.8503 -77.9772 259° West 416 479 32,300 -540 Descending Washington Center
06:54PM 38.8183 -78.1122 253° West 409 471 32,000 -180 Descending Washington Center
06:55PM 38.7322 -78.2289 227° Southwest 415 478 32,000  Level Washington Center
06:56PM 38.6342 -78.3292 219° Southwest 437 503 32,000  Level Washington Center
06:57PM 38.5378 -78.4344 221° Southwest 448 516 32,000  Level Washington Center
06:58PM 38.4372 -78.5419 220° Southwest 460 529 32,000 -600 Level Washington Center
06:59PM 38.3300 -78.6594 221° Southwest 467 537 30,900 -1,020 Descending Washington Center
07:00PM 38.2464 -78.7511 221° Southwest 460 529 30,000 -480 Descending Washington Center
07:01PM 38.1456 -78.8578 220° Southwest 460 529 30,000  Level Washington Center
07:02PM 38.0339 -78.9717 219° Southwest 467 537 30,000  Level Washington Center
07:03PM 37.9350 -79.0750 220° Southwest 467 537 30,000  Level Washington Center
07:04PM 37.8464 -79.1842 224° Southwest 462 532 30,000  Level Washington Center
07:05PM 37.7722 -79.2908 229° Southwest 457 526 30,000  Level Washington Center
07:06PM 37.6850 -79.4072 227° Southwest 457 526 30,000  Level Washington Center
07:07PM 37.5933 -79.5311 227° Southwest 451 519 30,000  Level Washington Center
07:08PM 37.5169 -79.6372 228° Southwest 451 519 30,000  Level Washington Center
07:09PM 37.3569 -79.8564 227° Southwest 465 535 30,000  Level Atlanta Center
07:10PM 37.2811 -79.9544 226° Southwest 458 527 30,000  Level Atlanta Center
07:11PM 37.1992 -80.0653 227° Southwest 446 513 30,000  Level Atlanta Center
07:12PM 37.1153 -80.1814 228° Southwest 446 513 30,000  Level Atlanta Center
07:13PM 37.0214 -80.3083 227° Southwest 446 513 30,000  Level Atlanta Center
07:14PM 36.9392 -80.4186 227° Southwest 446 513 30,000  Level Atlanta Center
07:15PM 36.8550 -80.5342 228° Southwest 446 513 30,000  Level Atlanta Center
07:16PM 36.7683 -80.6467 226° Southwest 446 513 30,000  Level Atlanta Center
07:17PM 36.6939 -80.7456 227° Southwest 437 503 30,000  Level Atlanta Center
07:18PM 36.6094 -80.8603 227° Southwest 437 503 30,000  Level Atlanta Center
07:19PM 36.5186 -80.9828 227° Southwest 437 503 30,000  Level Atlanta Center
07:20PM 36.4339 -81.0944 227° Southwest 437 503 30,000  Level Atlanta Center
07:21PM 36.3489 -81.2083 227° Southwest 442 509 30,000  Level Atlanta Center
07:22PM 36.2617 -81.3194 226° Southwest 447 514 30,000  Level Atlanta Center
07:23PM 36.1767 -81.4306 227° Southwest 442 509 30,000  Level Atlanta Center
07:24PM 36.0933 -81.5411 227° Southwest 442 509 30,000  Level Atlanta Center
07:25PM 36.0081 -81.6514 226° Southwest 447 514 30,000  Level Atlanta Center
07:26PM 35.9203 -81.7617 226° Southwest 440 506 30,000  Level Atlanta Center
07:27PM 35.8367 -81.8717 227° Southwest 445 512 30,000  Level Atlanta Center
07:28PM 35.7511 -81.9839 227° Southwest 450 518 30,000  Level Atlanta Center
07:29PM 35.6672 -82.0908 226° Southwest 439 505 30,000  Level Atlanta Center
07:30PM 35.5814 -82.2003 226° Southwest 439 505 30,000  Level Atlanta Center
07:31PM 35.4975 -82.3067 226° Southwest 432 497 30,000  Level Atlanta Center
07:32PM 35.4069 -82.4106 223° Southwest 439 505 30,000  Level Atlanta Center
07:33PM 35.3289 -82.5011 223° Southwest 439 505 30,000  Level Atlanta Center
07:34PM 35.2300 -82.6072 221° Southwest 445 512 30,000 -300 Level Atlanta Center
07:35PM 35.1372 -82.7053 221° Southwest 440 506 29,400 -1,080 Descending Atlanta Center
07:36PM 35.0464 -82.8083 223° Southwest 440 506 27,900 -1,620 Descending Atlanta Center
07:37PM 34.9556 -82.9111 223° Southwest 440 506 26,200 -1,680 Descending Atlanta Center
07:38PM 34.8628 -83.0136 222° Southwest 448 516 24,600 -1,140 Descending Atlanta Center
07:39PM 34.7675 -83.1133 221° Southwest 456 525 24,000 -900 Descending Atlanta Center
07:40PM 34.6847 -83.2025 222° Southwest 456 525 22,800 -1,020 Descending Atlanta Center
07:41PM 34.5933 -83.2994 221° Southwest 448 516 22,000 -420 Descending Atlanta Center
07:42PM 34.5022 -83.3986 222° Southwest 448 516 22,000 -1,080 Level Atlanta Center
07:43PM 34.4131 -83.4950 222° Southwest 440 506 19,900 -2,520 Descending Atlanta Center
07:44PM 34.3278 -83.5886 222° Southwest 429 494 17,000 -2,880 Descending Atlanta Center
07:45PM 34.2383 -83.6819 221° Southwest 429 494 14,200 -2,400 Descending Atlanta Center
07:46PM 34.1508 -83.7778 222° Southwest 409 471 12,300 -1,140 Descending Atlanta Center
07:47PM 34.0800 -83.8533 221° Southwest 368 423 12,000 -600 Descending Atlanta Center
07:48PM 34.0167 -83.9167 220° Southwest 310 357 11,200 -1,260 Descending Atlanta TRACON
07:49PM 33.9500 -83.9667 212° Southwest 310 357 9,700 -1,200 Descending Atlanta TRACON
07:50PM 33.8667 -83.9833 189° South 310 357 8,900 -900 Descending Atlanta TRACON
07:51PM 33.7833 -83.9833 180° South 304 350 8,000 -1,020 Descending Atlanta TRACON
07:52PM 33.7000 -83.9833 180° South 296 341 7,000 -1,080 Descending Atlanta TRACON
07:53PM 33.6333 -84.0167 203° Southwest 279 321 6,000 -540 Descending Atlanta TRACON
07:54PM 33.6333 -84.0833 270° West 212 244 6,000  Level Atlanta TRACON
07:54PM 33.6314 -84.0936 257° West 199 229 6,000 -780 Level Atlanta Center
07:55PM 33.6333 -84.1500 272° West 212 244 5,200 -1,140 Descending Atlanta TRACON
07:56PM 33.6333 -84.2167 270° West 209 241 4,100 -1,260 Descending Atlanta TRACON